sensor_id;sensor_type;location;lat;lon;timestamp;P1;durP1;ratioP1;P2;durP2;ratioP2
74483;SDS011;62942;52.462;10.846;2024-03-02T00:01:02;18.7;;;28.3;;
74483;SDS011;62942;52.462;10.846;2024-03-02T00:02:02;18.7;;;28.2;;
74483;SDS011;62942;52.462;10.846;2024-03-02T00:03:12;18.4;;;27.8;;
74483;SDS011;62942;52.462;10.846;2024-03-02T00:04:22;18.4;;;27.3;;
74483;SDS011;62942;52.462;10.846;2024-03-02T00:05:32;17.8;;;27.6;;
74483;SDS011;62942;52.462;10.846;2024-03-02T00:06:32;18.4;;;27.9;;
74483;SDS011;62942;52.462;10.846;2024-03-02T00:07:42;18.3;;;28;;
74483;SDS011;62942;52.462;10.846;2024-03-02T00:08:55;18.5;;;27.7;;
74483;SDS011;62942;52.462;10.846;2024-03-02T00:09:52;18.6;;;28.1;;
74483;SDS011;62942;52.462;10.846;2024-03-02T00:11:02;18.2;;;27.4;;
74483;SDS011;62942;52.462;10.846;2024-03-02T00:12:12;18.7;;;28.6;;
74483;SDS011;62942;52.462;10.846;2024-03-02T00:13:22;17.9;;;28.3;;
74483;SDS011;62942;52.462;10.846;2024-03-02T00:14:32;18.4;;;29.9;;
74483;SDS011;62942;52.462;10.846;2024-03-02T00:15:43;19;;;30.7;;
74483;SDS011;62942;52.462;10.846;2024-03-02T00:16:52;18.1;;;28.1;;
74483;SDS011;62942;52.462;10.846;2024-03-02T00:18:02;18;;;26.5;;
74483;SDS011;62942;52.462;10.846;2024-03-02T00:19:12;18.7;;;28.6;;
74483;SDS011;62942;52.462;10.846;2024-03-02T00:20:22;18.4;;;28.5;;
74483;SDS011;62942;52.462;10.846;2024-03-02T00:21:32;19.1;;;30.8;;
74483;SDS011;62942;52.462;10.846;2024-03-02T00:22:32;18.8;;;28.2;;
74483;SDS011;62942;52.462;10.846;2024-03-02T00:23:32;19.2;;;29.5;;
74483;SDS011;62942;52.462;10.846;2024-03-02T00:24:42;18.9;;;30.3;;
74483;SDS011;62942;52.462;10.846;2024-03-02T00:25:52;18.8;;;29.2;;
74483;SDS011;62942;52.462;10.846;2024-03-02T00:27:02;18.6;;;29.8;;
74483;SDS011;62942;52.462;10.846;2024-03-02T00:28:13;19.8;;;32.5;;
74483;SDS011;62942;52.462;10.846;2024-03-02T00:29:22;19.1;;;29.1;;
74483;SDS011;62942;52.462;10.846;2024-03-02T00:30:38;20.6;;;33;;
74483;SDS011;62942;52.462;10.846;2024-03-02T00:31:42;19.8;;;30.3;;
74483;SDS011;62942;52.462;10.846;2024-03-02T00:32:52;19.9;;;30.8;;
74483;SDS011;62942;52.462;10.846;2024-03-02T00:33:52;20;;;30.8;;
74483;SDS011;62942;52.462;10.846;2024-03-02T00:35:04;19.8;;;32.2;;
74483;SDS011;62942;52.462;10.846;2024-03-02T00:36:12;20;;;31.6;;
74483;SDS011;62942;52.462;10.846;2024-03-02T00:37:12;19.8;;;30.4;;
74483;SDS011;62942;52.462;10.846;2024-03-02T00:38:22;19.4;;;29.6;;
74483;SDS011;62942;52.462;10.846;2024-03-02T00:39:32;18.8;;;30.5;;
74483;SDS011;62942;52.462;10.846;2024-03-02T00:40:42;18.4;;;28.5;;
74483;SDS011;62942;52.462;10.846;2024-03-02T00:41:42;19.2;;;29.2;;
74483;SDS011;62942;52.462;10.846;2024-03-02T00:42:52;19.7;;;31.2;;
74483;SDS011;62942;52.462;10.846;2024-03-02T00:43:56;19.4;;;31.5;;
74483;SDS011;62942;52.462;10.846;2024-03-02T00:45:02;19.4;;;30.4;;
74483;SDS011;62942;52.462;10.846;2024-03-02T00:46:12;19.9;;;31.2;;
74483;SDS011;62942;52.462;10.846;2024-03-02T00:47:12;20.5;;;32.6;;
74483;SDS011;62942;52.462;10.846;2024-03-02T00:48:22;20;;;32.2;;
74483;SDS011;62942;52.462;10.846;2024-03-02T00:49:32;20.4;;;31.5;;
74483;SDS011;62942;52.462;10.846;2024-03-02T00:50:32;21.2;;;32.9;;
74483;SDS011;62942;52.462;10.846;2024-03-02T00:51:32;20.6;;;33.2;;
74483;SDS011;62942;52.462;10.846;2024-03-02T00:52:42;20.5;;;32.7;;
74483;SDS011;62942;52.462;10.846;2024-03-02T00:53:52;20.6;;;32.4;;
74483;SDS011;62942;52.462;10.846;2024-03-02T00:54:52;19.2;;;29.3;;
74483;SDS011;62942;52.462;10.846;2024-03-02T00:56:02;20.1;;;32.5;;
74483;SDS011;62942;52.462;10.846;2024-03-02T00:57:12;20.3;;;33;;
74483;SDS011;62942;52.462;10.846;2024-03-02T00:58:12;20.6;;;32.5;;
74483;SDS011;62942;52.462;10.846;2024-03-02T00:59:12;20.5;;;31.1;;
74483;SDS011;62942;52.462;10.846;2024-03-02T01:00:22;21;;;33.3;;
74483;SDS011;62942;52.462;10.846;2024-03-02T01:01:32;19.6;;;31.5;;
74483;SDS011;62942;52.462;10.846;2024-03-02T01:02:32;20.9;;;32.7;;
74483;SDS011;62942;52.462;10.846;2024-03-02T01:03:42;20.4;;;31;;
74483;SDS011;62942;52.462;10.846;2024-03-02T01:04:52;20.5;;;32.8;;
74483;SDS011;62942;52.462;10.846;2024-03-02T01:06:02;19.9;;;32.5;;
74483;SDS011;62942;52.462;10.846;2024-03-02T01:07:12;19.3;;;29.5;;
74483;SDS011;62942;52.462;10.846;2024-03-02T01:08:12;20.6;;;32.1;;
74483;SDS011;62942;52.462;10.846;2024-03-02T01:09:22;20.6;;;33;;
74483;SDS011;62942;52.462;10.846;2024-03-02T01:10:22;20.7;;;32.1;;
74483;SDS011;62942;52.462;10.846;2024-03-02T01:11:32;20.9;;;33;;
74483;SDS011;62942;52.462;10.846;2024-03-02T01:12:32;21.4;;;34.7;;
74483;SDS011;62942;52.462;10.846;2024-03-02T01:13:42;21.3;;;33.3;;
74483;SDS011;62942;52.462;10.846;2024-03-02T01:14:42;21;;;33.9;;
74483;SDS011;62942;52.462;10.846;2024-03-02T01:15:52;21;;;33.9;;
74483;SDS011;62942;52.462;10.846;2024-03-02T01:16:52;21.5;;;33.9;;
74483;SDS011;62942;52.462;10.846;2024-03-02T01:18:02;21.4;;;33.3;;
74483;SDS011;62942;52.462;10.846;2024-03-02T01:19:02;21.7;;;35.3;;
74483;SDS011;62942;52.462;10.846;2024-03-02T01:20:12;21.5;;;33.8;;
74483;SDS011;62942;52.462;10.846;2024-03-02T01:21:12;21.6;;;35.7;;
74483;SDS011;62942;52.462;10.846;2024-03-02T01:22:22;22.2;;;35.2;;
74483;SDS011;62942;52.462;10.846;2024-03-02T01:23:22;22.5;;;37.3;;
74483;SDS011;62942;52.462;10.846;2024-03-02T01:24:32;23.5;;;38.8;;
74483;SDS011;62942;52.462;10.846;2024-03-02T01:25:32;23.9;;;38.4;;
74483;SDS011;62942;52.462;10.846;2024-03-02T01:26:42;23.7;;;38.2;;
74483;SDS011;62942;52.462;10.846;2024-03-02T01:27:52;24.1;;;38.8;;
74483;SDS011;62942;52.462;10.846;2024-03-02T01:28:52;24.2;;;37.8;;
74483;SDS011;62942;52.462;10.846;2024-03-02T01:30:02;23.9;;;38.7;;
74483;SDS011;62942;52.462;10.846;2024-03-02T01:31:12;24;;;38.3;;
74483;SDS011;62942;52.462;10.846;2024-03-02T01:32:12;24.9;;;38.6;;
74483;SDS011;62942;52.462;10.846;2024-03-02T01:33:22;24.6;;;40.3;;
74483;SDS011;62942;52.462;10.846;2024-03-02T01:34:32;25.1;;;42.1;;
74483;SDS011;62942;52.462;10.846;2024-03-02T01:35:42;25.5;;;41.9;;
74483;SDS011;62942;52.462;10.846;2024-03-02T01:36:42;24.8;;;39.7;;
74483;SDS011;62942;52.462;10.846;2024-03-02T01:37:52;24.7;;;38.9;;
74483;SDS011;62942;52.462;10.846;2024-03-02T01:38:52;24.2;;;39.1;;
74483;SDS011;62942;52.462;10.846;2024-03-02T01:40:02;24.1;;;39.3;;
74483;SDS011;62942;52.462;10.846;2024-03-02T01:41:02;24.2;;;40.9;;
74483;SDS011;62942;52.462;10.846;2024-03-02T01:42:12;24.2;;;39.1;;
74483;SDS011;62942;52.462;10.846;2024-03-02T01:43:22;24.1;;;39;;
74483;SDS011;62942;52.462;10.846;2024-03-02T01:44:22;24.2;;;40;;
74483;SDS011;62942;52.462;10.846;2024-03-02T01:45:22;25.2;;;40.3;;
74483;SDS011;62942;52.462;10.846;2024-03-02T01:46:32;24.2;;;39.6;;
74483;SDS011;62942;52.462;10.846;2024-03-02T01:47:32;24.8;;;40.5;;
74483;SDS011;62942;52.462;10.846;2024-03-02T01:48:32;24.6;;;40.6;;
74483;SDS011;62942;52.462;10.846;2024-03-02T01:49:42;23.9;;;39;;
74483;SDS011;62942;52.462;10.846;2024-03-02T01:50:52;23.2;;;37.6;;
74483;SDS011;62942;52.462;10.846;2024-03-02T01:51:52;23;;;35.9;;
74483;SDS011;62942;52.462;10.846;2024-03-02T01:53:02;23.9;;;38.5;;
74483;SDS011;62942;52.462;10.846;2024-03-02T01:54:12;24.7;;;40.9;;
74483;SDS011;62942;52.462;10.846;2024-03-02T01:55:12;24;;;37.7;;
74483;SDS011;62942;52.462;10.846;2024-03-02T01:56:22;23.9;;;38.9;;
74483;SDS011;62942;52.462;10.846;2024-03-02T01:57:32;24.2;;;39.5;;
74483;SDS011;62942;52.462;10.846;2024-03-02T01:58:42;23.5;;;38;;
74483;SDS011;62942;52.462;10.846;2024-03-02T01:59:52;23.9;;;39.7;;
74483;SDS011;62942;52.462;10.846;2024-03-02T02:01:02;24.4;;;39.2;;
74483;SDS011;62942;52.462;10.846;2024-03-02T02:02:12;24;;;37.7;;
74483;SDS011;62942;52.462;10.846;2024-03-02T02:03:12;23.6;;;37.5;;
74483;SDS011;62942;52.462;10.846;2024-03-02T02:04:22;24;;;39.3;;
74483;SDS011;62942;52.462;10.846;2024-03-02T02:05:22;24.5;;;39.8;;
74483;SDS011;62942;52.462;10.846;2024-03-02T02:06:32;24.5;;;39.7;;
74483;SDS011;62942;52.462;10.846;2024-03-02T02:07:32;23.2;;;36.8;;
74483;SDS011;62942;52.462;10.846;2024-03-02T02:08:42;23.9;;;40;;
74483;SDS011;62942;52.462;10.846;2024-03-02T02:09:52;23.9;;;38.5;;
74483;SDS011;62942;52.462;10.846;2024-03-02T02:11:02;24.2;;;39;;
74483;SDS011;62942;52.462;10.846;2024-03-02T02:12:02;23.1;;;37.1;;
74483;SDS011;62942;52.462;10.846;2024-03-02T02:13:11;22.9;;;36.9;;
74483;SDS011;62942;52.462;10.846;2024-03-02T02:14:11;23.5;;;37.7;;
74483;SDS011;62942;52.462;10.846;2024-03-02T02:15:22;23.7;;;39.5;;
74483;SDS011;62942;52.462;10.846;2024-03-02T02:16:22;22.8;;;36.9;;
74483;SDS011;62942;52.462;10.846;2024-03-02T02:17:31;24.9;;;39.4;;
74483;SDS011;62942;52.462;10.846;2024-03-02T02:18:32;24.6;;;39.5;;
74483;SDS011;62942;52.462;10.846;2024-03-02T02:19:42;23.3;;;38;;
74483;SDS011;62942;52.462;10.846;2024-03-02T02:20:52;24.3;;;38.8;;
74483;SDS011;62942;52.462;10.846;2024-03-02T02:22:02;23.7;;;38.9;;
74483;SDS011;62942;52.462;10.846;2024-03-02T02:23:02;23.4;;;37;;
74483;SDS011;62942;52.462;10.846;2024-03-02T02:24:12;24;;;38.7;;
74483;SDS011;62942;52.462;10.846;2024-03-02T02:25:22;24.6;;;40;;
74483;SDS011;62942;52.462;10.846;2024-03-02T02:26:32;25.6;;;40.1;;
74483;SDS011;62942;52.462;10.846;2024-03-02T02:27:42;25.5;;;41.2;;
74483;SDS011;62942;52.462;10.846;2024-03-02T02:28:52;25.3;;;41.6;;
74483;SDS011;62942;52.462;10.846;2024-03-02T02:30:02;26.2;;;42.6;;
74483;SDS011;62942;52.462;10.846;2024-03-02T02:31:02;26.6;;;42.8;;
74483;SDS011;62942;52.462;10.846;2024-03-02T02:32:11;26.3;;;44;;
74483;SDS011;62942;52.462;10.846;2024-03-02T02:33:12;26.4;;;43.5;;
74483;SDS011;62942;52.462;10.846;2024-03-02T02:34:21;26.5;;;42.5;;
74483;SDS011;62942;52.462;10.846;2024-03-02T02:35:31;26.2;;;40.9;;
74483;SDS011;62942;52.462;10.846;2024-03-02T02:36:31;26.5;;;43.1;;
74483;SDS011;62942;52.462;10.846;2024-03-02T02:37:32;25.7;;;41.5;;
74483;SDS011;62942;52.462;10.846;2024-03-02T02:38:42;26.5;;;42.8;;
74483;SDS011;62942;52.462;10.846;2024-03-02T02:39:42;26.7;;;43.1;;
74483;SDS011;62942;52.462;10.846;2024-03-02T02:40:42;26.8;;;45.3;;
74483;SDS011;62942;52.462;10.846;2024-03-02T02:41:52;27.3;;;44.4;;
74483;SDS011;62942;52.462;10.846;2024-03-02T02:43:01;27.2;;;43.9;;
74483;SDS011;62942;52.462;10.846;2024-03-02T02:44:01;27.4;;;44.1;;
74483;SDS011;62942;52.462;10.846;2024-03-02T02:45:02;26.3;;;42.6;;
74483;SDS011;62942;52.462;10.846;2024-03-02T02:46:11;27.6;;;44.8;;
74483;SDS011;62942;52.462;10.846;2024-03-02T02:47:12;27.5;;;45.4;;
74483;SDS011;62942;52.462;10.846;2024-03-02T02:48:12;27.3;;;44.2;;
74483;SDS011;62942;52.462;10.846;2024-03-02T02:49:21;28;;;45.6;;
74483;SDS011;62942;52.462;10.846;2024-03-02T02:50:21;28.5;;;47.6;;
74483;SDS011;62942;52.462;10.846;2024-03-02T02:51:32;28.1;;;47;;
74483;SDS011;62942;52.462;10.846;2024-03-02T02:52:42;28.5;;;46.7;;
74483;SDS011;62942;52.462;10.846;2024-03-02T02:53:51;28.8;;;47.3;;
74483;SDS011;62942;52.462;10.846;2024-03-02T02:54:52;28.5;;;45.3;;
74483;SDS011;62942;52.462;10.846;2024-03-02T02:56:02;28.7;;;47.6;;
74483;SDS011;62942;52.462;10.846;2024-03-02T02:57:01;28.5;;;48.8;;
74483;SDS011;62942;52.462;10.846;2024-03-02T02:58:12;28.1;;;45.2;;
74483;SDS011;62942;52.462;10.846;2024-03-02T02:59:11;28.3;;;46.2;;
74483;SDS011;62942;52.462;10.846;2024-03-02T03:00:12;28.4;;;47.5;;
74483;SDS011;62942;52.462;10.846;2024-03-02T03:01:22;29;;;48.9;;
74483;SDS011;62942;52.462;10.846;2024-03-02T03:02:31;28.4;;;46.1;;
74483;SDS011;62942;52.462;10.846;2024-03-02T03:03:32;28.4;;;46.8;;
74483;SDS011;62942;52.462;10.846;2024-03-02T03:04:42;28.4;;;46.3;;
74483;SDS011;62942;52.462;10.846;2024-03-02T03:05:51;29.5;;;49.5;;
74483;SDS011;62942;52.462;10.846;2024-03-02T03:06:51;29.3;;;47.5;;
74483;SDS011;62942;52.462;10.846;2024-03-02T03:08:02;29.3;;;48.6;;
74483;SDS011;62942;52.462;10.846;2024-03-02T03:09:01;29.3;;;48.6;;
74483;SDS011;62942;52.462;10.846;2024-03-02T03:10:11;29.1;;;49;;
74483;SDS011;62942;52.462;10.846;2024-03-02T03:11:12;28.7;;;49.7;;
74483;SDS011;62942;52.462;10.846;2024-03-02T03:12:21;28.3;;;45.7;;
74483;SDS011;62942;52.462;10.846;2024-03-02T03:13:31;28.4;;;45.5;;
74483;SDS011;62942;52.462;10.846;2024-03-02T03:14:41;28.9;;;48.2;;
74483;SDS011;62942;52.462;10.846;2024-03-02T03:15:41;28.9;;;48.9;;
74483;SDS011;62942;52.462;10.846;2024-03-02T03:16:51;29.2;;;47.7;;
74483;SDS011;62942;52.462;10.846;2024-03-02T03:18:01;28.7;;;48.3;;
74483;SDS011;62942;52.462;10.846;2024-03-02T03:19:01;30;;;49.4;;
74483;SDS011;62942;52.462;10.846;2024-03-02T03:20:02;29.4;;;49.8;;
74483;SDS011;62942;52.462;10.846;2024-03-02T03:21:11;29.8;;;49.2;;
74483;SDS011;62942;52.462;10.846;2024-03-02T03:22:12;29.1;;;48;;
74483;SDS011;62942;52.462;10.846;2024-03-02T03:23:21;28.6;;;47.2;;
74483;SDS011;62942;52.462;10.846;2024-03-02T03:24:31;28.8;;;49.6;;
74483;SDS011;62942;52.462;10.846;2024-03-02T03:25:31;29.6;;;48.4;;
74483;SDS011;62942;52.462;10.846;2024-03-02T03:26:41;29.1;;;49;;
74483;SDS011;62942;52.462;10.846;2024-03-02T03:27:51;29.5;;;48.6;;
74483;SDS011;62942;52.462;10.846;2024-03-02T03:29:01;29.9;;;49.4;;
74483;SDS011;62942;52.462;10.846;2024-03-02T03:30:12;30;;;49.7;;
74483;SDS011;62942;52.462;10.846;2024-03-02T03:31:21;29.7;;;50.9;;
74483;SDS011;62942;52.462;10.846;2024-03-02T03:32:31;29.8;;;49;;
74483;SDS011;62942;52.462;10.846;2024-03-02T03:33:41;29.2;;;49.5;;
74483;SDS011;62942;52.462;10.846;2024-03-02T03:34:41;29.9;;;49.2;;
74483;SDS011;62942;52.462;10.846;2024-03-02T03:35:51;29.6;;;50.5;;
74483;SDS011;62942;52.462;10.846;2024-03-02T03:37:01;29.6;;;49;;
74483;SDS011;62942;52.462;10.846;2024-03-02T03:38:11;29.7;;;49.1;;
74483;SDS011;62942;52.462;10.846;2024-03-02T03:39:11;29.4;;;49.6;;
74483;SDS011;62942;52.462;10.846;2024-03-02T03:40:21;29.5;;;49.7;;
74483;SDS011;62942;52.462;10.846;2024-03-02T03:41:31;29.8;;;50.1;;
74483;SDS011;62942;52.462;10.846;2024-03-02T03:42:41;29.9;;;50.6;;
74483;SDS011;62942;52.462;10.846;2024-03-02T03:43:41;29.9;;;51.5;;
74483;SDS011;62942;52.462;10.846;2024-03-02T03:44:41;30.5;;;51.4;;
74483;SDS011;62942;52.462;10.846;2024-03-02T03:45:51;29.7;;;50.3;;
74483;SDS011;62942;52.462;10.846;2024-03-02T03:47:01;29.3;;;49.2;;
74483;SDS011;62942;52.462;10.846;2024-03-02T03:48:11;30.2;;;50;;
74483;SDS011;62942;52.462;10.846;2024-03-02T03:49:11;30.8;;;50;;
74483;SDS011;62942;52.462;10.846;2024-03-02T03:50:21;30.8;;;50.9;;
74483;SDS011;62942;52.462;10.846;2024-03-02T03:51:21;29.6;;;48;;
74483;SDS011;62942;52.462;10.846;2024-03-02T03:52:31;31.2;;;51.5;;
74483;SDS011;62942;52.462;10.846;2024-03-02T03:53:31;30.9;;;50.6;;
74483;SDS011;62942;52.462;10.846;2024-03-02T03:54:41;30.3;;;49.5;;
74483;SDS011;62942;52.462;10.846;2024-03-02T03:55:51;29.9;;;48.7;;
74483;SDS011;62942;52.462;10.846;2024-03-02T03:56:51;30.4;;;48.3;;
74483;SDS011;62942;52.462;10.846;2024-03-02T03:58:01;30;;;50;;
74483;SDS011;62942;52.462;10.846;2024-03-02T03:59:01;29.9;;;49.2;;
74483;SDS011;62942;52.462;10.846;2024-03-02T04:00:12;29.4;;;49.7;;
74483;SDS011;62942;52.462;10.846;2024-03-02T04:01:11;31.1;;;51.6;;
74483;SDS011;62942;52.462;10.846;2024-03-02T04:02:21;30.1;;;50.3;;
74483;SDS011;62942;52.462;10.846;2024-03-02T04:03:31;30.1;;;48.8;;
74483;SDS011;62942;52.462;10.846;2024-03-02T04:04:41;30.4;;;49.9;;
74483;SDS011;62942;52.462;10.846;2024-03-02T04:05:51;30.6;;;50.4;;
74483;SDS011;62942;52.462;10.846;2024-03-02T04:06:51;29.5;;;49.9;;
74483;SDS011;62942;52.462;10.846;2024-03-02T04:07:51;30.3;;;51.7;;
74483;SDS011;62942;52.462;10.846;2024-03-02T04:08:51;30.3;;;49.8;;
74483;SDS011;62942;52.462;10.846;2024-03-02T04:10:01;31;;;51.3;;
74483;SDS011;62942;52.462;10.846;2024-03-02T04:11:11;30.4;;;50.6;;
74483;SDS011;62942;52.462;10.846;2024-03-02T04:12:22;30.1;;;50.2;;
74483;SDS011;62942;52.462;10.846;2024-03-02T04:13:31;30.3;;;49.9;;
74483;SDS011;62942;52.462;10.846;2024-03-02T04:14:41;29.8;;;48.9;;
74483;SDS011;62942;52.462;10.846;2024-03-02T04:15:51;29.5;;;48.2;;
74483;SDS011;62942;52.462;10.846;2024-03-02T04:17:01;30.6;;;49.9;;
74483;SDS011;62942;52.462;10.846;2024-03-02T04:18:01;29.9;;;48.7;;
74483;SDS011;62942;52.462;10.846;2024-03-02T04:19:11;29.1;;;47.4;;
74483;SDS011;62942;52.462;10.846;2024-03-02T04:20:21;30.6;;;51.2;;
74483;SDS011;62942;52.462;10.846;2024-03-02T04:21:31;29.9;;;48.2;;
74483;SDS011;62942;52.462;10.846;2024-03-02T04:22:41;29.8;;;49.5;;
74483;SDS011;62942;52.462;10.846;2024-03-02T04:23:41;31.1;;;51.3;;
74483;SDS011;62942;52.462;10.846;2024-03-02T04:24:51;31.2;;;52.4;;
74483;SDS011;62942;52.462;10.846;2024-03-02T04:25:51;31.1;;;51.6;;
74483;SDS011;62942;52.462;10.846;2024-03-02T04:27:01;31.5;;;51.4;;
74483;SDS011;62942;52.462;10.846;2024-03-02T04:28:11;30.7;;;51.6;;
74483;SDS011;62942;52.462;10.846;2024-03-02T04:29:11;32.2;;;53.5;;
74483;SDS011;62942;52.462;10.846;2024-03-02T04:30:21;31.1;;;52.2;;
74483;SDS011;62942;52.462;10.846;2024-03-02T04:31:21;31.4;;;53.4;;
74483;SDS011;62942;52.462;10.846;2024-03-02T04:32:31;31.6;;;53.9;;
74483;SDS011;62942;52.462;10.846;2024-03-02T04:33:41;31.8;;;54;;
74483;SDS011;62942;52.462;10.846;2024-03-02T04:34:41;31;;;51.6;;
74483;SDS011;62942;52.462;10.846;2024-03-02T04:35:51;31.9;;;52.6;;
74483;SDS011;62942;52.462;10.846;2024-03-02T04:36:51;32.2;;;52.7;;
74483;SDS011;62942;52.462;10.846;2024-03-02T04:38:01;32.4;;;54.8;;
74483;SDS011;62942;52.462;10.846;2024-03-02T04:39:01;32.7;;;55.9;;
74483;SDS011;62942;52.462;10.846;2024-03-02T04:40:11;32;;;54.4;;
74483;SDS011;62942;52.462;10.846;2024-03-02T04:41:21;32.7;;;57;;
74483;SDS011;62942;52.462;10.846;2024-03-02T04:42:21;32.6;;;55.2;;
74483;SDS011;62942;52.462;10.846;2024-03-02T04:43:31;33.5;;;56;;
74483;SDS011;62942;52.462;10.846;2024-03-02T04:44:31;32.7;;;55.7;;
74483;SDS011;62942;52.462;10.846;2024-03-02T04:45:41;33.1;;;55.8;;
74483;SDS011;62942;52.462;10.846;2024-03-02T04:46:51;33.6;;;57.8;;
74483;SDS011;62942;52.462;10.846;2024-03-02T04:47:51;33.5;;;56.5;;
74483;SDS011;62942;52.462;10.846;2024-03-02T04:49:01;34.3;;;57.5;;
74483;SDS011;62942;52.462;10.846;2024-03-02T04:50:11;33.3;;;55;;
74483;SDS011;62942;52.462;10.846;2024-03-02T04:51:21;33;;;54;;
74483;SDS011;62942;52.462;10.846;2024-03-02T04:52:21;33.8;;;56.4;;
74483;SDS011;62942;52.462;10.846;2024-03-02T04:53:31;34.1;;;58.7;;
74483;SDS011;62942;52.462;10.846;2024-03-02T04:54:41;34;;;60.5;;
74483;SDS011;62942;52.462;10.846;2024-03-02T04:55:51;33.4;;;57.7;;
74483;SDS011;62942;52.462;10.846;2024-03-02T04:56:51;34;;;57.4;;
74483;SDS011;62942;52.462;10.846;2024-03-02T04:58:01;33.9;;;57.4;;
74483;SDS011;62942;52.462;10.846;2024-03-02T04:59:01;33.7;;;59.1;;
74483;SDS011;62942;52.462;10.846;2024-03-02T05:00:11;34.4;;;59.2;;
74483;SDS011;62942;52.462;10.846;2024-03-02T05:01:21;34.4;;;60.5;;
74483;SDS011;62942;52.462;10.846;2024-03-02T05:02:31;33.9;;;59.8;;
74483;SDS011;62942;52.462;10.846;2024-03-02T05:03:41;35.3;;;59.6;;
74483;SDS011;62942;52.462;10.846;2024-03-02T05:04:41;34.3;;;57.8;;
74483;SDS011;62942;52.462;10.846;2024-03-02T05:05:51;34.6;;;61.7;;
74483;SDS011;62942;52.462;10.846;2024-03-02T05:07:01;34.8;;;61.5;;
74483;SDS011;62942;52.462;10.846;2024-03-02T05:08:11;34.8;;;60.3;;
74483;SDS011;62942;52.462;10.846;2024-03-02T05:09:21;34.7;;;59.4;;
74483;SDS011;62942;52.462;10.846;2024-03-02T05:10:31;34.6;;;62.5;;
74483;SDS011;62942;52.462;10.846;2024-03-02T05:11:31;34.3;;;60.5;;
74483;SDS011;62942;52.462;10.846;2024-03-02T05:12:41;34.4;;;59.7;;
74483;SDS011;62942;52.462;10.846;2024-03-02T05:13:41;34.2;;;61;;
74483;SDS011;62942;52.462;10.846;2024-03-02T05:14:51;34.4;;;60.6;;
74483;SDS011;62942;52.462;10.846;2024-03-02T05:15:51;34.1;;;63.4;;
74483;SDS011;62942;52.462;10.846;2024-03-02T05:17:01;33.9;;;58.4;;
74483;SDS011;62942;52.462;10.846;2024-03-02T05:18:11;33.9;;;58.3;;
74483;SDS011;62942;52.462;10.846;2024-03-02T05:19:11;34;;;57.6;;
74483;SDS011;62942;52.462;10.846;2024-03-02T05:20:11;33.7;;;57;;
74483;SDS011;62942;52.462;10.846;2024-03-02T05:21:21;34;;;59.6;;
74483;SDS011;62942;52.462;10.846;2024-03-02T05:22:31;33;;;55.5;;
74483;SDS011;62942;52.462;10.846;2024-03-02T05:23:41;33.7;;;57.9;;
74483;SDS011;62942;52.462;10.846;2024-03-02T05:24:51;33.5;;;58.3;;
74483;SDS011;62942;52.462;10.846;2024-03-02T05:25:51;33.8;;;60.7;;
74483;SDS011;62942;52.462;10.846;2024-03-02T05:27:01;33.6;;;57.1;;
74483;SDS011;62942;52.462;10.846;2024-03-02T05:28:11;33.1;;;56.4;;
74483;SDS011;62942;52.462;10.846;2024-03-02T05:29:11;33.8;;;58;;
74483;SDS011;62942;52.462;10.846;2024-03-02T05:30:21;33.9;;;56.9;;
74483;SDS011;62942;52.462;10.846;2024-03-02T05:31:31;34.1;;;61.3;;
74483;SDS011;62942;52.462;10.846;2024-03-02T05:32:31;33.1;;;57.8;;
74483;SDS011;62942;52.462;10.846;2024-03-02T05:33:41;33.3;;;56.4;;
74483;SDS011;62942;52.462;10.846;2024-03-02T05:34:41;34.6;;;61.5;;
74483;SDS011;62942;52.462;10.846;2024-03-02T05:35:51;33.5;;;57.8;;
74483;SDS011;62942;52.462;10.846;2024-03-02T05:36:51;33.6;;;57.9;;
74483;SDS011;62942;52.462;10.846;2024-03-02T05:38:01;34.3;;;58.6;;
74483;SDS011;62942;52.462;10.846;2024-03-02T05:39:11;33.5;;;57.6;;
74483;SDS011;62942;52.462;10.846;2024-03-02T05:40:23;33.9;;;58.7;;
74483;SDS011;62942;52.462;10.846;2024-03-02T05:41:31;33.5;;;56.9;;
74483;SDS011;62942;52.462;10.846;2024-03-02T05:42:41;33;;;55.4;;
74483;SDS011;62942;52.462;10.846;2024-03-02T05:43:41;33.9;;;56.4;;
74483;SDS011;62942;52.462;10.846;2024-03-02T05:44:51;35.1;;;61.5;;
74483;SDS011;62942;52.462;10.846;2024-03-02T05:46:01;34.4;;;60.6;;
74483;SDS011;62942;52.462;10.846;2024-03-02T05:47:01;34.7;;;57.2;;
74483;SDS011;62942;52.462;10.846;2024-03-02T05:48:11;35.8;;;61.2;;
74483;SDS011;62942;52.462;10.846;2024-03-02T05:49:21;34.7;;;60.8;;
74483;SDS011;62942;52.462;10.846;2024-03-02T05:50:21;35.4;;;59.1;;
74483;SDS011;62942;52.462;10.846;2024-03-02T05:51:31;35.7;;;63.7;;
74483;SDS011;62942;52.462;10.846;2024-03-02T05:52:31;34.2;;;57.8;;
74483;SDS011;62942;52.462;10.846;2024-03-02T05:53:31;35;;;62.7;;
74483;SDS011;62942;52.462;10.846;2024-03-02T05:54:41;34.5;;;59.1;;
74483;SDS011;62942;52.462;10.846;2024-03-02T05:55:41;35.3;;;59.7;;
74483;SDS011;62942;52.462;10.846;2024-03-02T05:56:51;35.2;;;61.5;;
74483;SDS011;62942;52.462;10.846;2024-03-02T05:58:01;35.1;;;59.3;;
74483;SDS011;62942;52.462;10.846;2024-03-02T05:59:11;36;;;61.1;;
74483;SDS011;62942;52.462;10.846;2024-03-02T06:00:21;36.2;;;63.5;;
74483;SDS011;62942;52.462;10.846;2024-03-02T06:01:21;35.3;;;62.5;;
74483;SDS011;62942;52.462;10.846;2024-03-02T06:02:31;35.3;;;59.8;;
74483;SDS011;62942;52.462;10.846;2024-03-02T06:03:41;35.6;;;63.5;;
74483;SDS011;62942;52.462;10.846;2024-03-02T06:04:53;35.6;;;61.4;;
74483;SDS011;62942;52.462;10.846;2024-03-02T06:05:51;35.9;;;60.8;;
74483;SDS011;62942;52.462;10.846;2024-03-02T06:07:01;34.9;;;59.3;;
74483;SDS011;62942;52.462;10.846;2024-03-02T06:08:11;35;;;62.6;;
74483;SDS011;62942;52.462;10.846;2024-03-02T06:09:21;34.9;;;59.2;;
74483;SDS011;62942;52.462;10.846;2024-03-02T06:10:31;35.5;;;60.9;;
74483;SDS011;62942;52.462;10.846;2024-03-02T06:11:31;35.7;;;61.1;;
74483;SDS011;62942;52.462;10.846;2024-03-02T06:12:41;35.1;;;62.1;;
74483;SDS011;62942;52.462;10.846;2024-03-02T06:13:51;34.2;;;59;;
74483;SDS011;62942;52.462;10.846;2024-03-02T06:14:51;35;;;60.3;;
74483;SDS011;62942;52.462;10.846;2024-03-02T06:16:01;34.1;;;57.7;;
74483;SDS011;62942;52.462;10.846;2024-03-02T06:17:01;33.6;;;57.3;;
74483;SDS011;62942;52.462;10.846;2024-03-02T06:18:11;34.2;;;58;;
74483;SDS011;62942;52.462;10.846;2024-03-02T06:19:11;34.5;;;58.3;;
74483;SDS011;62942;52.462;10.846;2024-03-02T06:20:21;34.3;;;58.7;;
74483;SDS011;62942;52.462;10.846;2024-03-02T06:21:31;34.6;;;59.9;;
74483;SDS011;62942;52.462;10.846;2024-03-02T06:22:41;34.4;;;58;;
74483;SDS011;62942;52.462;10.846;2024-03-02T06:23:41;33.6;;;57.7;;
74483;SDS011;62942;52.462;10.846;2024-03-02T06:24:41;34.1;;;57.2;;
74483;SDS011;62942;52.462;10.846;2024-03-02T06:25:51;34.4;;;57.9;;
74483;SDS011;62942;52.462;10.846;2024-03-02T06:26:51;33.4;;;56.7;;
74483;SDS011;62942;52.462;10.846;2024-03-02T06:28:01;33.6;;;58.1;;
74483;SDS011;62942;52.462;10.846;2024-03-02T06:29:01;33.4;;;56.4;;
74483;SDS011;62942;52.462;10.846;2024-03-02T06:30:12;33.8;;;57.4;;
74483;SDS011;62942;52.462;10.846;2024-03-02T06:31:21;32.8;;;54.4;;
74483;SDS011;62942;52.462;10.846;2024-03-02T06:32:31;32.8;;;54.2;;
74483;SDS011;62942;52.462;10.846;2024-03-02T06:33:41;33;;;56.1;;
74483;SDS011;62942;52.462;10.846;2024-03-02T06:34:51;33.1;;;54.8;;
74483;SDS011;62942;52.462;10.846;2024-03-02T06:35:51;32.5;;;53.3;;
74483;SDS011;62942;52.462;10.846;2024-03-02T06:36:51;32.5;;;52.9;;
74483;SDS011;62942;52.462;10.846;2024-03-02T06:38:01;31.7;;;53.6;;